Time;durP1;ratioP1;P1;durP2;ratioP2;P2;SDS_P1;SDS_P2;PMS_P1;PMS_P2;Temp;Humidity;BMP_temperature;BMP_pressure;BME280_temperature;BME280_humidity;BME280_pressure;Samples;Min_cycle;Max_cycle;Signal;HPM_P1;HPM_P2
2022/12/15 00:40:07;;;;;;;22.25;9.95;;;;;;;;;;5128497;27;20101;-76
2022/12/15 00:42:34;;;;;;;28.52;9.88;;;;;;;;;;5093457;27;20656;-76
2022/12/15 00:45:00;;;;;;;19.85;9.05;;;;;;;;;;5087763;28;20076;-76
2022/12/15 00:47:26;;;;;;;20.55;9.82;;;;;;;;;;5070043;28;20049;-76
2022/12/15 01:20:18;;;;;;;24.35;9.77;;;;;;;;;;5095510;28;20224;-76
2022/12/15 01:22:46;;;;;;;21.73;9.32;;;;;;;;;;5105190;28;20102;-76
2022/12/15 01:25:13;;;;;;;22.13;10.15;;;;;;;;;;5107443;28;20056;-76
2022/12/15 01:27:40;;;;;;;26.90;11.07;;;;;;;;;;5104677;28;20153;-77
2022/12/15 01:30:07;;;;;;;22.33;10.50;;;;;;;;;;5117663;27;20055;-77
2022/12/15 01:32:33;;;;;;;23.65;10.38;;;;;;;;;;5109220;27;20503;-77
2022/12/15 01:35:00;;;;;;;28.25;11.10;;;;;;;;;;5086704;28;20059;-77
2022/12/15 01:37:26;;;;;;;23.80;10.02;;;;;;;;;;5086267;28;20107;-76
2022/12/15 01:42:38;;;;;;;23.33;10.27;;;;;;;;;;5087845;28;20064;-76
2022/12/15 01:45:35;;;;;;;30.58;11.85;;;;;;;;;;5100601;27;20063;-76
2022/12/15 01:48:03;;;;;;;22.35;10.50;;;;;;;;;;5100658;27;20059;-76
2022/12/15 01:50:32;;;;;;;26.05;11.32;;;;;;;;;;5093197;27;20056;-76
2022/12/15 01:52:58;;;;;;;24.85;11.02;;;;;;;;;;5095379;28;20056;-76
2022/12/15 01:55:26;;;;;;;23.13;10.90;;;;;;;;;;5106955;28;20086;-76
2022/12/15 01:57:56;;;;;;;23.98;10.85;;;;;;;;;;5103118;28;20064;-76
2022/12/15 02:00:22;;;;;;;26.88;10.60;;;;;;;;;;5086800;28;20056;-76
2022/12/15 02:02:49;;;;;;;26.02;9.95;;;;;;;;;;5107779;27;20052;-76
2022/12/15 02:05:16;;;;;;;21.50;9.77;;;;;;;;;;5090001;28;20514;-76
2022/12/15 02:07:42;;;;;;;30.27;11.07;;;;;;;;;;5088784;28;20061;-77
2022/12/15 02:10:09;;;;;;;22.88;11.65;;;;;;;;;;5088036;28;20059;-76
2022/12/15 02:12:40;;;;;;;22.90;11.07;;;;;;;;;;5092216;28;20060;-77
2022/12/15 02:15:13;;;;;;;25.45;10.35;;;;;;;;;;5107633;28;20060;-76
2022/12/15 02:17:39;;;;;;;25.25;10.48;;;;;;;;;;5106064;27;20120;-75
2022/12/15 02:20:12;;;;;;;22.75;10.35;;;;;;;;;;5128701;27;20086;-76
2022/12/15 02:22:38;;;;;;;22.77;10.40;;;;;;;;;;5100137;28;20059;-76
2022/12/15 02:25:04;;;;;;;28.23;10.60;;;;;;;;;;5087509;28;20700;-75
2022/12/15 02:27:47;;;;;;;23.77;10.73;;;;;;;;;;5091660;27;21726;-76
2022/12/15 02:30:20;;;;;;;27.17;11.07;;;;;;;;;;5107954;27;20147;-76
2022/12/15 02:33:15;;;;;;;27.80;10.50;;;;;;;;;;5108014;28;20059;-76
2022/12/15 02:35:50;;;;;;;23.23;9.93;;;;;;;;;;5087645;28;20155;-76
2022/12/15 02:38:26;;;;;;;27.58;11.23;;;;;;;;;;5082770;28;20048;-76
2022/12/15 02:40:56;;;;;;;23.05;10.43;;;;;;;;;;5090962;28;20063;-76
2022/12/15 02:43:23;;;;;;;32.27;11.77;;;;;;;;;;5127735;27;20082;-76
2022/12/15 02:46:07;;;;;;;22.65;10.65;;;;;;;;;;5108246;27;20128;-76
2022/12/15 02:48:50;;;;;;;27.02;11.05;;;;;;;;;;5089962;28;20143;-76
2022/12/15 02:51:25;;;;;;;26.52;11.50;;;;;;;;;;5090952;28;20053;-76
2022/12/15 02:54:05;;;;;;;23.65;10.35;;;;;;;;;;5113019;27;20052;-76
2022/12/15 02:56:31;;;;;;;24.92;9.68;;;;;;;;;;5130284;27;20055;-76
2022/12/15 02:59:12;;;;;;;19.95;9.93;;;;;;;;;;5105862;28;20055;-77
2022/12/15 03:01:39;;;;;;;24.83;9.75;;;;;;;;;;5090835;28;20057;-77
2022/12/15 03:04:07;;;;;;;22.55;10.13;;;;;;;;;;5090030;28;20126;-77
2022/12/15 03:06:33;;;;;;;27.40;11.15;;;;;;;;;;5090070;27;20053;-77
2022/12/15 03:09:00;;;;;;;25.85;10.35;;;;;;;;;;5124502;27;20075;-77
2022/12/15 03:11:27;;;;;;;22.92;9.52;;;;;;;;;;5110282;28;20064;-77
2022/12/15 03:13:53;;;;;;;23.23;10.52;;;;;;;;;;5107070;28;20941;-77
2022/12/15 03:16:20;;;;;;;28.85;10.25;;;;;;;;;;5097993;28;20131;-77
2022/12/15 03:18:47;;;;;;;25.75;11.18;;;;;;;;;;5090121;28;20052;-77
2022/12/15 03:21:13;;;;;;;24.95;10.20;;;;;;;;;;5089763;28;20511;-76
2022/12/15 03:23:39;;;;;;;25.20;10.50;;;;;;;;;;5103494;27;20098;-77
2022/12/15 03:26:06;;;;;;;23.02;9.60;;;;;;;;;;5130804;27;20059;-76
2022/12/15 03:28:32;;;;;;;26.75;10.90;;;;;;;;;;5130689;27;20062;-77
2022/12/15 03:30:59;;;;;;;23.60;10.90;;;;;;;;;;5106002;27;20050;-77
2022/12/15 03:33:25;;;;;;;22.90;10.23;;;;;;;;;;5089715;28;20048;-77
2022/12/15 03:35:52;;;;;;;26.58;10.80;;;;;;;;;;5089147;28;20087;-77
2022/12/15 03:38:18;;;;;;;25.60;10.93;;;;;;;;;;5126290;27;20059;-77
2022/12/15 03:40:45;;;;;;;23.70;10.38;;;;;;;;;;5096502;27;20058;-77
2022/12/15 03:43:11;;;;;;;24.90;10.45;;;;;;;;;;5089131;28;20056;-77
2022/12/15 03:45:37;;;;;;;26.27;10.70;;;;;;;;;;5087980;28;20053;-76
2022/12/15 03:48:04;;;;;;;22.73;10.93;;;;;;;;;;5099439;28;20051;-76
2022/12/15 03:50:30;;;;;;;23.75;11.30;;;;;;;;;;5110897;27;20482;-77
2022/12/15 03:53:19;;;;;;;23.23;10.95;;;;;;;;;;5130533;27;20087;-77
2022/12/15 03:55:49;;;;;;;28.52;11.75;;;;;;;;;;5120107;27;20640;-77
2022/12/15 03:58:15;;;;;;;25.50;11.00;;;;;;;;;;5109021;28;20048;-77
2022/12/15 04:00:42;;;;;;;30.00;11.77;;;;;;;;;;5105409;28;20135;-77
2022/12/15 04:03:09;;;;;;;26.83;12.20;;;;;;;;;;5091453;28;20052;-77
2022/12/15 04:05:36;;;;;;;28.55;11.98;;;;;;;;;;5106991;27;20542;-77
2022/12/15 04:08:03;;;;;;;29.15;12.57;;;;;;;;;;5090229;28;20052;-77
2022/12/15 04:10:30;;;;;;;23.67;11.23;;;;;;;;;;5089517;28;20060;-76
2022/12/15 04:13:01;;;;;;;22.77;12.02;;;;;;;;;;5089888;28;20063;-77
2022/12/15 04:15:30;;;;;;;32.05;12.88;;;;;;;;;;5088957;28;20080;-76
2022/12/15 04:17:59;;;;;;;24.95;11.52;;;;;;;;;;5070605;28;20102;-76
2022/12/15 04:20:26;;;;;;;23.95;10.82;;;;;;;;;;5099500;27;20643;-77
2022/12/15 04:22:52;;;;;;;28.45;11.90;;;;;;;;;;5096599;28;20106;-77
2022/12/15 05:33:16;;;;;;;25.45;11.75;;;;;;;;;;5107221;28;20048;-78
2022/12/15 05:35:43;;;;;;;25.73;11.45;;;;;;;;;;5100162;27;20052;-77
2022/12/15 05:38:09;;;;;;;27.80;11.20;;;;;;;;;;5106121;27;20049;-78
2022/12/15 05:40:35;;;;;;;24.80;10.85;;;;;;;;;;5087357;28;20049;-77
2022/12/15 05:43:02;;;;;;;23.85;10.80;;;;;;;;;;5078826;28;20047;-77
2022/12/15 05:45:28;;;;;;;31.23;11.48;;;;;;;;;;5089402;28;20123;-77
2022/12/15 05:47:54;;;;;;;29.15;12.07;;;;;;;;;;5073435;28;20052;-77
2022/12/15 05:50:21;;;;;;;26.95;12.30;;;;;;;;;;5113042;27;20058;-77
2022/12/15 05:52:48;;;;;;;23.33;10.93;;;;;;;;;;5110049;27;21256;-77
2022/12/15 05:55:15;;;;;;;21.50;10.65;;;;;;;;;;5088647;28;20563;-77
2022/12/15 05:57:42;;;;;;;32.47;11.52;;;;;;;;;;5106566;28;20474;-77
2022/12/15 06:00:08;;;;;;;28.42;11.65;;;;;;;;;;5107713;28;20200;-77
2022/12/15 06:02:36;;;;;;;27.75;12.27;;;;;;;;;;5103727;28;20063;-77
2022/12/15 06:05:03;;;;;;;22.02;10.40;;;;;;;;;;5076257;28;20068;-77
2022/12/15 06:07:29;;;;;;;32.15;12.30;;;;;;;;;;5086714;28;20052;-77
2022/12/15 06:09:56;;;;;;;23.98;10.82;;;;;;;;;;5107034;28;20056;-77
2022/12/15 06:12:22;;;;;;;28.15;11.32;;;;;;;;;;5101733;28;20060;-77
2022/12/15 06:14:50;;;;;;;22.75;9.32;;;;;;;;;;5093832;28;20494;-76
2022/12/15 06:20:17;;;;;;;25.77;10.60;;;;;;;;;;5113692;27;20058;-76
2022/12/15 06:22:43;;;;;;;29.05;10.75;;;;;;;;;;5116607;27;20055;-76
2022/12/15 06:25:16;;;;;;;32.17;11.73;;;;;;;;;;5109652;28;20047;-76
2022/12/15 06:27:42;;;;;;;24.75;11.88;;;;;;;;;;5102629;28;20510;-76
2022/12/15 06:30:09;;;;;;;25.77;10.25;;;;;;;;;;5095175;28;20060;-77
2022/12/15 06:32:35;;;;;;;29.77;12.70;;;;;;;;;;5093472;28;20056;-77
2022/12/15 06:35:02;;;;;;;27.33;12.40;;;;;;;;;;5110359;28;20415;-77
2022/12/15 06:37:28;;;;;;;23.25;10.90;;;;;;;;;;5107459;27;20063;-76
2022/12/15 06:39:54;;;;;;;23.58;10.45;;;;;;;;;;5101447;27;20754;-77
2022/12/15 06:42:20;;;;;;;24.77;11.05;;;;;;;;;;5125705;27;20102;-76
2022/12/15 06:44:47;;;;;;;29.13;11.52;;;;;;;;;;5094022;28;20067;-76
2022/12/15 06:47:15;;;;;;;26.30;11.25;;;;;;;;;;5106446;28;20059;-76
2022/12/15 06:49:41;;;;;;;32.13;12.52;;;;;;;;;;5108047;28;20052;-76
2022/12/15 06:52:08;;;;;;;31.38;14.27;;;;;;;;;;5104052;28;20533;-77
2022/12/15 06:54:34;;;;;;;32.25;14.70;;;;;;;;;;5122361;27;20125;-77
2022/12/15 06:57:00;;;;;;;31.63;13.65;;;;;;;;;;5091327;28;20055;-77
2022/12/15 06:59:27;;;;;;;31.90;13.45;;;;;;;;;;5102199;28;20075;-76
2022/12/15 07:01:53;;;;;;;32.95;14.05;;;;;;;;;;5094113;28;20063;-76
2022/12/15 07:04:20;;;;;;;31.13;12.82;;;;;;;;;;5109572;28;20052;-77
2022/12/15 07:06:46;;;;;;;25.65;11.82;;;;;;;;;;5111815;27;20055;-76
2022/12/15 07:09:15;;;;;;;26.75;12.55;;;;;;;;;;5097140;27;20048;-77
2022/12/15 07:11:41;;;;;;;29.10;12.15;;;;;;;;;;5089570;28;20511;-77
2022/12/15 07:14:08;;;;;;;30.02;11.75;;;;;;;;;;5109830;28;20066;-77
2022/12/15 07:16:35;;;;;;;30.60;14.02;;;;;;;;;;5109428;27;20135;-77
2022/12/15 07:19:01;;;;;;;33.78;14.40;;;;;;;;;;5090769;28;20055;-76
2022/12/15 07:21:28;;;;;;;31.13;12.55;;;;;;;;;;5107976;28;20109;-76
2022/12/15 07:23:54;;;;;;;26.65;12.00;;;;;;;;;;5102352;28;20059;-77
2022/12/15 07:26:23;;;;;;;30.85;12.70;;;;;;;;;;5108577;28;20078;-76
2022/12/15 07:28:49;;;;;;;38.85;11.60;;;;;;;;;;5108416;27;20732;-76
2022/12/15 07:31:16;;;;;;;26.23;11.75;;;;;;;;;;5075709;28;20052;-77
2022/12/15 07:33:47;;;;;;;26.08;12.45;;;;;;;;;;5084193;28;20507;-76
2022/12/15 07:36:15;;;;;;;31.35;12.27;;;;;;;;;;5094953;28;20577;-77
2022/12/15 07:38:44;;;;;;;28.35;12.07;;;;;;;;;;5101044;27;20492;-77
2022/12/15 07:41:15;;;;;;;25.70;11.85;;;;;;;;;;5125201;27;20109;-77
2022/12/15 07:43:42;;;;;;;31.88;15.45;;;;;;;;;;5108445;27;20058;-77
2022/12/15 07:46:09;;;;;;;39.42;18.05;;;;;;;;;;5071699;28;20060;-77
2022/12/15 07:48:35;;;;;;;39.97;16.40;;;;;;;;;;5086847;27;20057;-77
2022/12/15 07:51:05;;;;;;;39.20;15.40;;;;;;;;;;5092180;28;20049;-77
2022/12/15 07:53:38;;;;;;;33.50;14.55;;;;;;;;;;5104224;28;20463;-78
2022/12/15 07:56:04;;;;;;;30.88;12.85;;;;;;;;;;5104666;28;20063;-78
2022/12/15 07:58:34;;;;;;;31.38;13.90;;;;;;;;;;5074139;28;20182;-78
2022/12/15 08:01:02;;;;;;;29.77;13.27;;;;;;;;;;5090351;28;20563;-78
2022/12/15 08:03:28;;;;;;;33.22;14.23;;;;;;;;;;5083963;28;20057;-77
2022/12/15 08:05:55;;;;;;;34.42;14.52;;;;;;;;;;5105766;28;20094;-77
2022/12/15 08:08:29;;;;;;;38.72;14.02;;;;;;;;;;5078889;27;20056;-77
2022/12/15 08:10:56;;;;;;;38.08;16.20;;;;;;;;;;5071602;28;20081;-77
2022/12/15 08:13:25;;;;;;;31.88;14.88;;;;;;;;;;5105322;28;20048;-78
2022/12/15 08:16:12;;;;;;;31.35;14.13;;;;;;;;;;5100064;27;20063;-77
2022/12/15 08:18:39;;;;;;;35.47;15.27;;;;;;;;;;5102237;28;20546;-77
2022/12/15 08:21:07;;;;;;;33.20;15.05;;;;;;;;;;5094983;28;20110;-77
2022/12/15 08:23:34;;;;;;;32.08;14.00;;;;;;;;;;5088832;28;20056;-77
2022/12/15 08:26:04;;;;;;;36.55;14.18;;;;;;;;;;5097336;27;20052;-77
2022/12/15 08:28:34;;;;;;;35.25;14.93;;;;;;;;;;5103673;28;20052;-77
2022/12/15 08:31:03;;;;;;;32.35;14.82;;;;;;;;;;5107499;27;20502;-77
2022/12/15 08:33:29;;;;;;;43.47;16.45;;;;;;;;;;5116593;27;20088;-77
2022/12/15 08:36:00;;;;;;;40.03;16.40;;;;;;;;;;5097796;28;20524;-77
2022/12/15 08:38:27;;;;;;;36.45;15.48;;;;;;;;;;5102967;27;20560;-77
2022/12/15 08:40:53;;;;;;;36.95;15.52;;;;;;;;;;5099208;28;20060;-77
2022/12/15 08:43:20;;;;;;;39.75;17.50;;;;;;;;;;5102076;27;20051;-78
2022/12/15 08:45:46;;;;;;;38.75;16.98;;;;;;;;;;5086109;27;20047;-77
2022/12/15 08:48:15;;;;;;;40.53;16.13;;;;;;;;;;5103224;27;20086;-77
2022/12/15 08:50:44;;;;;;;39.17;18.23;;;;;;;;;;5093382;28;20056;-78
2022/12/15 08:53:11;;;;;;;38.90;17.90;;;;;;;;;;5107871;28;20049;-78
2022/12/15 08:56:05;;;;;;;44.63;17.45;;;;;;;;;;5095496;28;20044;-78
2022/12/15 08:58:31;;;;;;;38.70;16.77;;;;;;;;;;5088421;28;20048;-78
2022/12/15 09:01:05;;;;;;;40.05;17.77;;;;;;;;;;5104748;27;20529;-78
2022/12/15 09:03:32;;;;;;;44.22;18.13;;;;;;;;;;5077098;28;20438;-78
2022/12/15 09:06:03;;;;;;;38.47;17.77;;;;;;;;;;5092756;28;20056;-81
2022/12/15 09:08:30;;;;;;;41.42;17.25;;;;;;;;;;5088101;28;20232;-77
2022/12/15 09:11:14;;;;;;;41.47;19.02;;;;;;;;;;5097059;28;20059;-77
2022/12/15 09:13:40;;;;;;;41.78;17.15;;;;;;;;;;5100911;28;20056;-77
2022/12/15 09:16:11;;;;;;;37.85;18.48;;;;;;;;;;5084907;27;20142;-78
2022/12/15 09:18:40;;;;;;;46.45;19.60;;;;;;;;;;5093651;28;20140;-78
2022/12/15 09:21:07;;;;;;;40.78;18.55;;;;;;;;;;5093116;28;20052;-78
2022/12/15 09:23:34;;;;;;;42.78;19.40;;;;;;;;;;5099935;28;20079;-77
2022/12/15 09:26:02;;;;;;;43.65;19.58;;;;;;;;;;5098953;28;20146;-77
2022/12/15 09:28:28;;;;;;;41.72;18.90;;;;;;;;;;5104935;28;20058;-78
2022/12/15 09:31:02;;;;;;;45.42;20.10;;;;;;;;;;5102054;28;20052;-78
2022/12/15 09:33:29;;;;;;;37.95;18.50;;;;;;;;;;5073298;27;20129;-78
2022/12/15 09:35:56;;;;;;;43.88;19.67;;;;;;;;;;5105849;28;20056;-78
2022/12/15 09:38:22;;;;;;;39.65;20.50;;;;;;;;;;5099391;28;20060;-78
2022/12/15 09:40:49;;;;;;;49.25;21.10;;;;;;;;;;5105318;27;20149;-78
2022/12/15 09:43:20;;;;;;;47.83;21.92;;;;;;;;;;5105415;28;20105;-77
2022/12/15 09:46:06;;;;;;;44.38;21.00;;;;;;;;;;5094020;28;20614;-77
2022/12/15 09:48:37;;;;;;;46.15;21.52;;;;;;;;;;5096811;28;20539;-78
2022/12/15 09:51:07;;;;;;;45.30;20.70;;;;;;;;;;5106912;27;20526;-77
2022/12/15 09:53:33;;;;;;;47.67;20.90;;;;;;;;;;5091578;28;20056;-78
2022/12/15 09:56:22;;;;;;;47.85;21.80;;;;;;;;;;5103059;28;20137;-77
2022/12/15 09:58:51;;;;;;;48.03;21.10;;;;;;;;;;5104615;28;20086;-78
2022/12/15 10:01:26;;;;;;;42.15;20.80;;;;;;;;;;5103289;28;20043;-77
2022/12/15 10:03:58;;;;;;;47.40;22.33;;;;;;;;;;5105404;28;20131;-77
2022/12/15 10:06:30;;;;;;;40.08;21.27;;;;;;;;;;5096650;28;20474;-77
2022/12/15 10:09:01;;;;;;;49.38;20.83;;;;;;;;;;5095775;27;20109;-77
2022/12/15 10:11:30;;;;;;;41.90;20.20;;;;;;;;;;5100423;28;20060;-77
2022/12/15 10:14:18;;;;;;;42.33;19.75;;;;;;;;;;5107284;28;20054;-77
2022/12/15 10:16:58;;;;;;;41.63;19.60;;;;;;;;;;5092534;28;20143;-77
2022/12/15 10:19:24;;;;;;;49.00;20.90;;;;;;;;;;5097657;28;20052;-77
2022/12/15 10:21:52;;;;;;;38.97;19.35;;;;;;;;;;5080260;28;20052;-77
2022/12/15 10:24:22;;;;;;;36.83;17.35;;;;;;;;;;5092499;27;20064;-75
2022/12/15 10:27:17;;;;;;;39.38;17.90;;;;;;;;;;5098536;28;20060;-76
2022/12/15 10:29:56;;;;;;;41.72;18.10;;;;;;;;;;5094268;28;20048;-76
2022/12/15 10:32:41;;;;;;;40.88;19.65;;;;;;;;;;5105212;28;20517;-77
2022/12/15 10:35:22;;;;;;;38.08;18.60;;;;;;;;;;5091776;28;20059;-76
2022/12/15 10:37:48;;;;;;;37.85;18.80;;;;;;;;;;5101759;28;20900;-76
2022/12/15 10:40:19;;;;;;;40.92;17.98;;;;;;;;;;5094569;28;20056;-76
2022/12/15 10:42:49;;;;;;;41.60;18.67;;;;;;;;;;5105412;27;20114;-76
2022/12/15 10:45:34;;;;;;;41.28;19.33;;;;;;;;;;5090367;28;20063;-76
2022/12/15 10:48:02;;;;;;;36.83;18.17;;;;;;;;;;5099346;28;20600;-77
2022/12/15 10:50:29;;;;;;;38.30;18.17;;;;;;;;;;5102719;27;20053;-77
2022/12/15 10:52:56;;;;;;;39.20;18.38;;;;;;;;;;5089574;28;20052;-76
2022/12/15 10:55:39;;;;;;;42.70;21.33;;;;;;;;;;5070852;28;20052;-77
2022/12/15 10:58:19;;;;;;;43.40;21.42;;;;;;;;;;5095691;27;20052;-77
2022/12/15 11:00:47;;;;;;;44.20;19.88;;;;;;;;;;5106540;28;20072;-77
2022/12/15 11:03:23;;;;;;;37.13;18.90;;;;;;;;;;5069457;28;20799;-77
2022/12/15 11:05:54;;;;;;;41.92;19.08;;;;;;;;;;5103464;28;20577;-77
2022/12/15 11:08:22;;;;;;;37.95;18.15;;;;;;;;;;5109781;28;20052;-77
2022/12/15 11:13:36;;;;;;;42.15;19.50;;;;;;;;;;5098439;27;20059;-78
2022/12/15 11:16:12;;;;;;;39.03;17.70;;;;;;;;;;5106607;27;20059;-78
2022/12/15 11:18:45;;;;;;;41.90;19.10;;;;;;;;;;5104396;27;20060;-78
2022/12/15 11:21:25;;;;;;;37.88;18.77;;;;;;;;;;5090729;28;20610;-80
2022/12/15 11:23:57;;;;;;;40.38;18.48;;;;;;;;;;5111522;28;20102;-79
2022/12/15 11:26:44;;;;;;;38.88;19.25;;;;;;;;;;5107470;27;20062;-80
2022/12/15 11:29:19;;;;;;;36.38;18.42;;;;;;;;;;5076683;28;20877;-80
2022/12/15 11:31:47;;;;;;;40.40;17.73;;;;;;;;;;5121607;27;20064;-80
2022/12/15 11:34:16;;;;;;;40.78;18.38;;;;;;;;;;5119699;27;20052;-80
2022/12/15 11:36:45;;;;;;;38.05;18.75;;;;;;;;;;5099087;27;20435;-80
2022/12/15 11:39:13;;;;;;;;;;;;;;;;;;5102803;27;20927;-80
2022/12/15 11:41:40;;;;;;;41.10;19.10;;;;;;;;;;5073706;28;48623;-79
2022/12/15 11:44:09;;;;;;;35.60;16.77;;;;;;;;;;5096179;28;20049;-79
2022/12/15 11:46:39;;;;;;;42.45;20.45;;;;;;;;;;5099221;28;20506;-79
2022/12/15 11:49:18;;;;;;;38.80;20.15;;;;;;;;;;5092214;27;20159;-80
2022/12/15 11:51:49;;;;;;;38.63;18.27;;;;;;;;;;5105048;27;20678;-79
2022/12/15 11:54:16;;;;;;;;;;;;;;;;;;5091733;28;20062;-80
2022/12/15 11:56:58;;;;;;;33.95;16.42;;;;;;;;;;5093747;27;47675;-80
2022/12/15 11:59:43;;;;;;;38.65;18.98;;;;;;;;;;5092501;28;20898;-80
2022/12/15 12:02:18;;;;;;;37.97;18.17;;;;;;;;;;5099398;27;20127;-79
2022/12/15 12:05:01;;;;;;;41.72;19.00;;;;;;;;;;5096086;27;20061;-80
2022/12/15 12:07:48;;;;;;;38.42;19.58;;;;;;;;;;5108900;27;20052;-79
2022/12/15 12:10:31;;;;;;;43.90;20.25;;;;;;;;;;5092037;28;20052;-80
2022/12/15 12:13:06;;;;;;;38.90;20.80;;;;;;;;;;5108428;28;20054;-80
2022/12/15 12:15:52;;;;;;;40.08;20.13;;;;;;;;;;5099733;27;20245;-80
2022/12/15 12:18:21;;;;;;;46.17;21.13;;;;;;;;;;5093168;27;20063;-80
2022/12/15 12:20:55;;;;;;;40.70;20.80;;;;;;;;;;5076313;27;20060;-81
2022/12/15 12:23:23;;;;;;;39.47;20.40;;;;;;;;;;5096271;27;20055;-81
2022/12/15 12:25:56;;;;;;;37.88;19.67;;;;;;;;;;5091745;28;20588;-81
2022/12/15 12:28:49;;;;;;;41.97;19.27;;;;;;;;;;5091503;28;20056;-82
2022/12/15 12:31:28;;;;;;;45.35;20.77;;;;;;;;;;5132981;27;20121;-81
2022/12/15 12:33:57;;;;;;;41.80;20.70;;;;;;;;;;5132537;27;20501;-82
2022/12/15 12:36:23;;;;;;;40.50;20.02;;;;;;;;;;5100353;27;20067;-81
2022/12/15 12:38:52;;;;;;;40.90;19.95;;;;;;;;;;5101159;28;20514;-82
2022/12/15 12:41:37;;;;;;;35.75;19.65;;;;;;;;;;5092573;28;20048;-82
2022/12/15 12:44:09;;;;;;;41.72;20.88;;;;;;;;;;5094330;28;20101;-82
2022/12/15 12:46:39;;;;;;;38.28;20.33;;;;;;;;;;5108960;27;20060;-83
2022/12/15 12:49:21;;;;;;;37.25;19.35;;;;;;;;;;5120250;27;20168;-82
2022/12/15 12:51:53;;;;;;;40.08;21.25;;;;;;;;;;5126363;27;20049;-83
2022/12/15 12:54:32;;;;;;;47.15;23.10;;;;;;;;;;5074967;28;20071;-84
2022/12/15 12:57:12;;;;;;;43.88;21.55;;;;;;;;;;5074111;28;20060;-88
2022/12/15 12:59:56;;;;;;;47.15;22.65;;;;;;;;;;5078147;28;20056;-86
2022/12/15 13:02:24;;;;;;;41.20;21.60;;;;;;;;;;5100562;28;20140;-83
2022/12/15 13:04:50;;;;;;;42.83;23.13;;;;;;;;;;5113970;27;20101;-83
2022/12/15 13:07:27;;;;;;;45.47;20.92;;;;;;;;;;5113341;28;20098;-83
2022/12/15 13:10:12;;;;;;;41.72;22.25;;;;;;;;;;5111466;28;20087;-83
2022/12/15 13:12:48;;;;;;;43.65;23.08;;;;;;;;;;5101410;27;20506;-82
2022/12/15 13:15:17;;;;;;;46.30;23.02;;;;;;;;;;5093208;28;20538;-83
2022/12/15 13:17:48;;;;;;;41.78;21.85;;;;;;;;;;5111845;28;20139;-84
2022/12/15 13:20:18;;;;;;;42.42;22.52;;;;;;;;;;5109831;27;20048;-84
2022/12/15 13:22:45;;;;;;;41.10;22.48;;;;;;;;;;5103776;28;20087;-84
2022/12/15 13:25:40;;;;;;;45.33;23.00;;;;;;;;;;5100444;27;20202;-83
2022/12/15 13:28:17;;;;;;;41.50;22.55;;;;;;;;;;5088030;28;20864;-82
2022/12/15 13:31:02;;;;;;;39.28;21.00;;;;;;;;;;5096054;28;20507;-86
2022/12/15 13:33:31;;;;;;;39.17;20.25;;;;;;;;;;5093153;28;20610;-84
2022/12/15 13:35:59;;;;;;;42.55;21.50;;;;;;;;;;5114625;27;20052;-84
2022/12/15 13:38:45;;;;;;;42.25;21.63;;;;;;;;;;5127696;27;20912;-84
2022/12/15 13:41:22;;;;;;;41.78;22.35;;;;;;;;;;5112598;27;20182;-83
2022/12/15 13:43:50;;;;;;;40.70;20.98;;;;;;;;;;5086865;28;20056;-83
2022/12/15 13:46:22;;;;;;;43.75;23.20;;;;;;;;;;5098327;28;20051;-86
2022/12/15 13:49:00;;;;;;;39.72;21.20;;;;;;;;;;5104770;28;20051;-83
2022/12/15 13:51:29;;;;;;;42.15;20.92;;;;;;;;;;5080129;28;20174;-83
2022/12/15 13:54:15;;;;;;;43.17;20.45;;;;;;;;;;5094330;28;20055;-82
2022/12/15 13:56:50;;;;;;;40.42;20.15;;;;;;;;;;5095530;28;20056;-83
2022/12/15 13:59:26;;;;;;;41.20;20.80;;;;;;;;;;5075623;28;20062;-82
2022/12/15 14:01:52;;;;;;;39.30;20.23;;;;;;;;;;5105006;27;20052;-83
2022/12/15 14:04:20;;;;;;;38.55;21.30;;;;;;;;;;5074802;28;20060;-82
2022/12/15 14:06:48;;;;;;;42.03;21.10;;;;;;;;;;5100533;27;20959;-83
2022/12/15 14:09:37;;;;;;;40.17;21.67;;;;;;;;;;5090831;28;20618;-83
2022/12/15 14:12:04;;;;;;;45.83;23.92;;;;;;;;;;5089034;28;20482;-83
2022/12/15 14:14:33;;;;;;;44.38;23.25;;;;;;;;;;5101460;28;20273;-83
2022/12/15 14:17:01;;;;;;;44.90;22.52;;;;;;;;;;5113751;27;20068;-83
2022/12/15 14:19:38;;;;;;;44.67;23.13;;;;;;;;;;5090111;28;20056;-82
2022/12/15 14:22:17;;;;;;;45.42;23.60;;;;;;;;;;5097521;27;20049;-83
2022/12/15 14:24:58;;;;;;;45.08;23.38;;;;;;;;;;5116876;27;20044;-83
2022/12/15 14:27:29;;;;;;;42.88;23.70;;;;;;;;;;5099440;27;20492;-83
2022/12/15 14:30:14;;;;;;;52.15;25.08;;;;;;;;;;5089847;28;20061;-83
2022/12/15 14:32:42;;;;;;;46.95;23.77;;;;;;;;;;5089643;28;20294;-82
2022/12/15 14:35:13;;;;;;;47.22;25.48;;;;;;;;;;5094151;27;20495;-82
2022/12/15 14:37:39;;;;;;;;;;;;;;;;;;5094069;28;20057;-82
2022/12/15 14:40:11;;;;;;;48.78;23.95;;;;;;;;;;5073336;28;45548;-82
2022/12/15 14:42:41;;;;;;;49.03;24.60;;;;;;;;;;5083332;28;20075;-82
2022/12/15 14:45:18;;;;;;;48.42;24.88;;;;;;;;;;5120947;27;20048;-83
2022/12/15 14:47:50;;;;;;;48.85;25.48;;;;;;;;;;5104224;28;21988;-81
2022/12/15 14:50:36;;;;;;;44.38;23.67;;;;;;;;;;5111019;28;20055;-81
2022/12/15 14:53:12;;;;;;;47.08;23.95;;;;;;;;;;5107593;27;20143;-81
2022/12/15 14:55:39;;;;;;;50.25;23.95;;;;;;;;;;5104608;27;20107;-81
2022/12/15 14:58:26;;;;;;;47.17;23.45;;;;;;;;;;5100258;27;20064;-81
2022/12/15 15:00:53;;;;;;;52.45;25.65;;;;;;;;;;5104230;28;20452;-81
2022/12/15 15:03:25;;;;;;;46.95;25.13;;;;;;;;;;5110192;28;20109;-81
2022/12/15 15:05:58;;;;;;;53.63;26.23;;;;;;;;;;5091143;28;20075;-81
2022/12/15 15:08:31;;;;;;;49.35;25.67;;;;;;;;;;5099572;28;20052;-81
2022/12/15 15:11:22;;;;;;;50.67;25.42;;;;;;;;;;5121059;27;20048;-81
2022/12/15 15:13:51;;;;;;;49.88;25.45;;;;;;;;;;5097700;28;20058;-81
2022/12/15 15:16:21;;;;;;;51.53;25.27;;;;;;;;;;5109884;28;20091;-81
2022/12/15 15:18:49;;;;;;;47.40;24.77;;;;;;;;;;5083274;28;20052;-81
2022/12/15 15:21:18;;;;;;;47.75;25.23;;;;;;;;;;5105518;27;20049;-81
2022/12/15 15:23:57;;;;;;;51.58;24.60;;;;;;;;;;5109788;28;20575;-80
2022/12/15 15:26:24;;;;;;;57.30;27.10;;;;;;;;;;5108883;27;20066;-81
2022/12/15 15:28:50;;;;;;;63.50;29.88;;;;;;;;;;5115834;27;20542;-81
2022/12/15 15:31:23;;;;;;;56.20;26.90;;;;;;;;;;5114969;27;20048;-81
2022/12/15 15:33:55;;;;;;;66.55;29.42;;;;;;;;;;5101451;27;20200;-82
2022/12/15 15:36:31;;;;;;;58.97;29.08;;;;;;;;;;5109950;28;20063;-81
2022/12/15 15:38:58;;;;;;;48.80;25.63;;;;;;;;;;5109979;28;20059;-81
2022/12/15 15:41:29;;;;;;;51.50;26.65;;;;;;;;;;5103513;27;20049;-81
2022/12/15 15:43:58;;;;;;;53.75;25.30;;;;;;;;;;5096361;27;20097;-81
2022/12/15 15:46:26;;;;;;;52.85;25.67;;;;;;;;;;5092150;28;20067;-81
2022/12/15 15:48:54;;;;;;;51.97;25.58;;;;;;;;;;5097546;27;20554;-81
2022/12/15 15:51:22;;;;;;;47.28;25.58;;;;;;;;;;5086486;28;20060;-80
2022/12/15 15:53:49;;;;;;;49.70;25.60;;;;;;;;;;5102787;28;20481;-80
2022/12/15 15:56:15;;;;;;;50.00;25.20;;;;;;;;;;5114187;28;20108;-80
2022/12/15 15:58:42;;;;;;;50.80;25.55;;;;;;;;;;5113579;28;20080;-80
2022/12/15 16:01:09;;;;;;;55.75;26.65;;;;;;;;;;5107586;27;20048;-80
2022/12/15 16:03:39;;;;;;;49.03;25.42;;;;;;;;;;5094653;28;20060;-82
2022/12/15 16:06:14;;;;;;;51.10;25.73;;;;;;;;;;5093964;28;20429;-81
2022/12/15 16:08:40;;;;;;;45.97;23.40;;;;;;;;;;5092637;27;20411;-81
2022/12/15 16:11:08;;;;;;;52.38;24.52;;;;;;;;;;5127043;27;20056;-81
2022/12/15 16:13:35;;;;;;;49.80;25.52;;;;;;;;;;5106841;28;20096;-80
2022/12/15 16:16:01;;;;;;;51.30;25.88;;;;;;;;;;5097505;28;20056;-81
2022/12/15 16:18:28;;;;;;;55.38;25.45;;;;;;;;;;5128779;27;20056;-80
2022/12/15 16:20:55;;;;;;;52.08;26.35;;;;;;;;;;5108613;27;20847;-80
2022/12/15 16:23:22;;;;;;;52.30;24.75;;;;;;;;;;5111177;28;20051;-79
2022/12/15 16:25:51;;;;;;;52.53;25.40;;;;;;;;;;5129257;27;20059;-79
2022/12/15 16:28:19;;;;;;;48.05;25.20;;;;;;;;;;5132623;27;20048;-79
2022/12/15 16:30:45;;;;;;;57.45;26.05;;;;;;;;;;5108374;27;20092;-79
2022/12/15 16:33:12;;;;;;;55.38;26.92;;;;;;;;;;5104404;27;20104;-79
2022/12/15 16:35:40;;;;;;;61.53;27.30;;;;;;;;;;5114556;27;20555;-80
2022/12/15 16:38:36;;;;;;;65.35;29.98;;;;;;;;;;5133765;27;20059;-80
2022/12/15 16:41:05;;;;;;;68.63;30.55;;;;;;;;;;5105122;27;20048;-79
2022/12/15 16:43:32;;;;;;;60.28;27.15;;;;;;;;;;5104592;27;20047;-79
2022/12/15 16:46:13;;;;;;;50.50;24.35;;;;;;;;;;5098045;28;20052;-79
2022/12/15 16:48:42;;;;;;;46.70;24.30;;;;;;;;;;5112022;28;20048;-79
2022/12/15 16:51:16;;;;;;;54.08;24.83;;;;;;;;;;5112507;28;20052;-79
2022/12/15 16:53:44;;;;;;;54.00;25.00;;;;;;;;;;5089811;28;20067;-79
2022/12/15 16:56:12;;;;;;;49.08;25.02;;;;;;;;;;5092648;28;20779;-79
2022/12/15 16:58:39;;;;;;;48.13;24.63;;;;;;;;;;5103989;27;20079;-79
2022/12/15 17:01:05;;;;;;;49.47;25.17;;;;;;;;;;5105061;27;20083;-79
2022/12/15 17:03:31;;;;;;;49.05;24.10;;;;;;;;;;5094640;27;20098;-79
2022/12/15 17:06:00;;;;;;;56.85;25.17;;;;;;;;;;5074220;28;20056;-78